Time;durP1;ratioP1;P1;durP2;ratioP2;P2;SDS_P1;SDS_P2;PMS_P1;PMS_P2;Temp;Humidity;BMP_temperature;BMP_pressure;BME280_temperature;BME280_humidity;BME280_pressure;Samples;Min_cycle;Max_cycle;Signal;HPM_P1;HPM_P2
2023/05/24 00:00:17;;;;;;;1.23;1.10;;;19.90;76.90;;;;;;6215883;23;20169;-85
2023/05/24 00:02:46;;;;;;;1.50;0.67;;;19.90;76.80;;;;;;6243192;23;20167;-86
2023/05/24 00:05:15;;;;;;;1.20;0.53;;;19.90;76.80;;;;;;6242245;23;20197;-86
2023/05/24 00:07:44;;;;;;;0.97;0.63;;;19.90;76.90;;;;;;6240626;23;20206;-87
2023/05/24 00:10:14;;;;;;;0.73;0.50;;;19.80;76.90;;;;;;6242075;23;20194;-84
2023/05/24 00:12:43;;;;;;;1.70;0.40;;;19.80;77.00;;;;;;6241874;23;20162;-85
2023/05/24 00:15:11;;;;;;;1.00;0.87;;;19.80;77.00;;;;;;6242322;23;20628;-86
2023/05/24 00:17:41;;;;;;;0.67;0.67;;;19.70;77.00;;;;;;6215547;23;20211;-85
2023/05/24 00:20:12;;;;;;;0.30;0.30;;;19.70;77.00;;;;;;6239300;23;20205;-87
2023/05/24 00:22:42;;;;;;;0.63;0.63;;;19.70;77.10;;;;;;6240856;23;20166;-86
2023/05/24 00:25:10;;;;;;;0.83;0.63;;;19.70;77.10;;;;;;6216373;23;20245;-86
2023/05/24 00:27:43;;;;;;;0.80;0.80;;;19.70;78.10;;;;;;6240880;23;20170;-86
2023/05/24 00:30:12;;;;;;;0.53;0.40;;;19.60;77.90;;;;;;6239493;23;20278;-86
2023/05/24 00:32:40;;;;;;;1.00;0.77;;;19.60;78.40;;;;;;6240764;23;20162;-84
2023/05/24 00:35:09;;;;;;;0.50;0.50;;;19.60;78.20;;;;;;6243102;23;20169;-86
2023/05/24 00:37:39;;;;;;;0.97;0.67;;;19.60;78.30;;;;;;6242724;23;20171;-85
2023/05/24 00:40:09;;;;;;;0.50;0.50;;;19.50;78.30;;;;;;6244580;23;20177;-86
2023/05/24 00:42:37;;;;;;;0.40;0.40;;;19.50;78.30;;;;;;6243715;23;20167;-87
2023/05/24 00:45:08;;;;;;;0.50;0.30;;;19.50;78.30;;;;;;6218058;23;20170;-86
2023/05/24 00:47:37;;;;;;;0.33;0.33;;;19.50;78.30;;;;;;6242432;23;20175;-87
2023/05/24 00:50:08;;;;;;;0.60;0.30;;;19.50;78.30;;;;;;6242382;23;20209;-86
2023/05/24 00:52:37;;;;;;;1.43;0.73;;;19.40;78.40;;;;;;6242519;23;20155;-85
2023/05/24 00:55:07;;;;;;;2.37;0.43;;;19.40;78.50;;;;;;6243680;23;20167;-86
2023/05/24 00:57:36;;;;;;;0.30;0.30;;;19.40;78.40;;;;;;6242484;23;20253;-85
2023/05/24 01:00:08;;;;;;;0.87;0.83;;;19.40;78.40;;;;;;6242520;23;20487;-85
2023/05/24 01:02:38;;;;;;;0.53;0.50;;;19.40;78.50;;;;;;6241063;23;20181;-87
2023/05/24 01:05:08;;;;;;;3.70;0.67;;;19.30;78.60;;;;;;6244352;23;20194;-86
2023/05/24 01:07:51;;;;;;;2.23;1.20;;;19.30;78.70;;;;;;6242833;23;20573;-86
2023/05/24 01:10:34;;;;;;;1.10;1.00;;;19.30;78.90;;;;;;6232661;23;20178;-85
2023/05/24 01:13:12;;;;;;;0.63;0.63;;;19.30;79.00;;;;;;6256479;23;20159;-86
2023/05/24 01:15:52;;;;;;;4.27;1.13;;;19.30;79.00;;;;;;6242582;23;20173;-86
2023/05/24 01:18:29;;;;;;;3.00;0.67;;;19.30;79.10;;;;;;6243957;23;20158;-86
2023/05/24 01:21:06;;;;;;;2.10;0.73;;;19.30;79.20;;;;;;6242774;23;20163;-85
2023/05/24 01:23:45;;;;;;;0.40;0.40;;;19.20;79.10;;;;;;6239400;23;20166;-85
2023/05/24 01:26:37;;;;;;;0.40;0.40;;;19.20;79.70;;;;;;6242478;23;20655;-84
2023/05/24 01:29:08;;;;;;;0.47;0.47;;;19.20;79.70;;;;;;6244235;23;20169;-86
2023/05/24 01:31:37;;;;;;;0.60;0.43;;;19.20;79.70;;;;;;6243092;23;20198;-84
2023/05/24 01:34:06;;;;;;;0.67;0.67;;;19.20;79.70;;;;;;6243420;23;20241;-85
2023/05/24 01:36:35;;;;;;;0.75;0.70;;;19.20;79.60;;;;;;6243342;23;20390;-85
2023/05/24 01:39:04;;;;;;;2.63;1.27;;;19.10;79.80;;;;;;6243011;23;20170;-85
2023/05/24 01:41:39;;;;;;;0.40;0.40;;;19.10;80.00;;;;;;6243453;23;20616;-86
2023/05/24 01:44:15;;;;;;;12.53;1.10;;;19.10;80.70;;;;;;6243704;23;20162;-85
2023/05/24 01:46:49;;;;;;;1.33;0.60;;;19.10;80.80;;;;;;6242805;23;20237;-85
2023/05/24 01:49:22;;;;;;;2.20;1.07;;;19.10;81.10;;;;;;6216349;23;20170;-85
2023/05/24 01:51:55;;;;;;;1.23;0.80;;;19.10;81.10;;;;;;6244245;23;20182;-84
2023/05/24 01:54:26;;;;;;;2.17;1.00;;;19.00;81.00;;;;;;6243576;23;20572;-85
2023/05/24 01:56:57;;;;;;;1.70;0.43;;;19.00;80.80;;;;;;6241936;23;20631;-86
2023/05/24 01:59:30;;;;;;;2.87;0.80;;;19.00;81.00;;;;;;6241680;23;20230;-87
2023/05/24 02:01:58;;;;;;;0.47;0.47;;;19.00;80.90;;;;;;6243835;23;20241;-86
2023/05/24 02:04:27;;;;;;;1.33;0.97;;;19.00;80.90;;;;;;6242736;23;20240;-86
2023/05/24 02:06:55;;;;;;;0.50;0.50;;;19.00;81.00;;;;;;6241332;23;20257;-85
2023/05/24 02:09:23;;;;;;;0.40;0.40;;;18.90;81.00;;;;;;6243318;23;20170;-87
2023/05/24 02:11:52;;;;;;;0.67;0.60;;;18.90;81.00;;;;;;6243446;23;20195;-86
2023/05/24 02:14:21;;;;;;;0.40;0.40;;;18.90;80.90;;;;;;6241669;23;20672;-87
2023/05/24 02:16:51;;;;;;;0.87;0.77;;;18.90;80.80;;;;;;6240349;23;20507;-86
2023/05/24 02:19:20;;;;;;;1.57;1.17;;;18.90;80.90;;;;;;6241712;23;20245;-84
2023/05/24 02:21:50;;;;;;;0.50;0.40;;;18.90;80.90;;;;;;6243699;23;20459;-85
2023/05/24 02:24:19;;;;;;;0.53;0.50;;;18.90;81.00;;;;;;6242996;23;20245;-87
2023/05/24 02:26:47;;;;;;;1.37;1.03;;;18.90;81.00;;;;;;6241215;23;20934;-87
2023/05/24 02:29:17;;;;;;;0.83;0.53;;;18.80;80.80;;;;;;6242679;23;20254;-86
2023/05/24 02:31:45;;;;;;;1.53;0.60;;;18.80;80.90;;;;;;6243192;23;20281;-86
2023/05/24 02:34:16;;;;;;;0.63;0.30;;;18.80;81.10;;;;;;6241633;23;20670;-86
2023/05/24 02:36:45;;;;;;;1.47;0.77;;;18.80;81.10;;;;;;6240336;23;20169;-85
2023/05/24 02:39:13;;;;;;;0.77;0.77;;;18.80;81.10;;;;;;6241317;23;20171;-87
2023/05/24 02:41:42;;;;;;;1.07;0.80;;;18.80;81.30;;;;;;6241006;23;20546;-87
2023/05/24 02:44:10;;;;;;;0.40;0.40;;;18.70;81.10;;;;;;6243546;23;20615;-87
2023/05/24 02:46:39;;;;;;;2.40;0.80;;;18.70;81.20;;;;;;6241707;23;20273;-88
2023/05/24 02:49:08;;;;;;;0.80;0.80;;;18.70;81.20;;;;;;6243504;23;20166;-87
2023/05/24 02:51:38;;;;;;;2.27;1.20;;;18.70;81.20;;;;;;6240245;23;20297;-84
2023/05/24 02:54:07;;;;;;;0.50;0.50;;;18.70;81.20;;;;;;6243250;23;20159;-85
2023/05/24 02:56:36;;;;;;;0.60;0.60;;;18.70;81.20;;;;;;6241006;23;20178;-85
2023/05/24 02:59:05;;;;;;;0.60;0.50;;;18.60;81.20;;;;;;6241615;23;20170;-86
2023/05/24 03:01:34;;;;;;;1.10;1.00;;;18.60;81.20;;;;;;6240606;23;20250;-86
2023/05/24 03:04:02;;;;;;;0.50;0.43;;;18.60;81.20;;;;;;6241837;23;20194;-87
2023/05/24 03:06:31;;;;;;;0.40;0.40;;;18.60;81.20;;;;;;6241904;23;20151;-85
2023/05/24 03:09:04;;;;;;;0.50;0.50;;;18.60;81.20;;;;;;6243775;23;20158;-87
2023/05/24 03:11:32;;;;;;;0.43;0.43;;;18.60;81.20;;;;;;6241004;23;20187;-87
2023/05/24 03:14:02;;;;;;;0.90;0.90;;;18.60;81.30;;;;;;6244191;23;20162;-86
2023/05/24 03:16:30;;;;;;;1.00;0.93;;;18.60;81.40;;;;;;6241578;23;20228;-85
2023/05/24 03:19:00;;;;;;;0.80;0.80;;;18.60;81.50;;;;;;6242848;23;20170;-86
2023/05/24 03:21:29;;;;;;;1.47;1.00;;;18.60;81.50;;;;;;6241859;23;20166;-85
2023/05/24 03:23:58;;;;;;;11.63;1.10;;;18.60;81.50;;;;;;6243472;23;20169;-85
2023/05/24 03:26:28;;;;;;;4.43;1.00;;;18.70;81.60;;;;;;6241463;23;20248;-86
2023/05/24 03:28:56;;;;;;;1.50;0.80;;;18.70;81.80;;;;;;6243504;23;20776;-85
2023/05/24 03:31:25;;;;;;;1.23;0.77;;;18.70;81.90;;;;;;6240512;23;20198;-86
2023/05/24 03:33:54;;;;;;;0.90;0.70;;;18.70;81.90;;;;;;6241407;23;20166;-86
2023/05/24 03:36:24;;;;;;;0.70;0.50;;;18.70;82.10;;;;;;6242293;23;20250;-86
2023/05/24 03:38:58;;;;;;;1.00;0.90;;;18.70;82.20;;;;;;6243602;23;20158;-86
2023/05/24 03:41:27;;;;;;;0.87;0.80;;;18.70;82.20;;;;;;6241444;23;20174;-86
2023/05/24 03:43:56;;;;;;;1.80;1.40;;;18.70;82.20;;;;;;6241807;23;20174;-86
2023/05/24 03:46:24;;;;;;;1.60;1.17;;;18.70;82.40;;;;;;6242814;23;20209;-87
2023/05/24 03:48:53;;;;;;;2.00;1.40;;;18.80;82.90;;;;;;6242129;23;20170;-86
2023/05/24 03:51:37;;;;;;;3.53;1.40;;;18.80;82.80;;;;;;6196870;22;20417;-87
2023/05/24 03:54:05;;;;;;;0.97;0.77;;;18.80;83.30;;;;;;6237189;23;20734;-88
2023/05/24 03:56:37;;;;;;;1.20;1.10;;;18.90;83.30;;;;;;6239462;23;20679;-86
2023/05/24 03:59:06;;;;;;;1.80;0.83;;;18.90;83.50;;;;;;6239050;23;20195;-85
2023/05/24 04:01:35;;;;;;;1.70;1.07;;;18.90;83.80;;;;;;6238621;23;20163;-86
2023/05/24 04:04:04;;;;;;;5.37;1.60;;;18.90;83.70;;;;;;6241342;23;20162;-88
2023/05/24 04:06:35;;;;;;;2.57;1.43;;;18.90;83.60;;;;;;6240582;23;20513;-87
2023/05/24 04:09:05;;;;;;;3.07;1.63;;;19.00;84.10;;;;;;6241162;23;20163;-86
2023/05/24 04:11:35;;;;;;;4.33;2.03;;;19.00;84.30;;;;;;6241983;23;20197;-86
2023/05/24 04:14:04;;;;;;;1.57;1.47;;;19.00;84.20;;;;;;6241998;23;20186;-85
2023/05/24 04:16:38;;;;;;;8.93;1.43;;;19.00;84.40;;;;;;6241884;23;20254;-87
2023/05/24 04:19:07;;;;;;;2.27;1.03;;;19.00;84.20;;;;;;6243374;23;20185;-86
2023/05/24 04:21:36;;;;;;;5.10;1.43;;;19.10;84.20;;;;;;6242489;23;20175;-86
2023/05/24 04:42:32;;;;;;;4.33;2.33;;;19.40;85.50;;;;;;6247063;22;20191;-86
2023/05/24 04:45:03;;;;;;;8.17;2.73;;;19.40;85.70;;;;;;6220835;23;20185;-84
2023/05/24 04:47:32;;;;;;;3.97;1.80;;;19.50;85.80;;;;;;6251561;23;20174;-84
2023/05/24 04:50:03;;;;;;;5.33;2.67;;;19.50;85.90;;;;;;6246910;23;20166;-85
2023/05/24 04:52:32;;;;;;;4.67;2.27;;;19.60;86.10;;;;;;6215831;23;20936;-85
2023/05/24 04:55:00;;;;;;;4.07;2.67;;;19.60;86.00;;;;;;6242853;23;20162;-85
2023/05/24 04:57:30;;;;;;;3.80;1.87;;;19.70;85.90;;;;;;6239644;23;20273;-85
2023/05/24 05:02:46;;;;;;;3.27;1.90;;;19.80;85.70;;;;;;6233417;23;20228;-84
2023/05/24 05:05:15;;;;;;;2.97;1.90;;;19.90;85.80;;;;;;6237945;23;20174;-84
2023/05/24 05:07:46;;;;;;;3.93;2.20;;;19.90;85.60;;;;;;6241991;23;20163;-87
2023/05/24 05:10:15;;;;;;;4.30;2.03;;;20.00;85.70;;;;;;6242753;23;20634;-84
2023/05/24 05:12:45;;;;;;;4.23;2.13;;;20.10;85.70;;;;;;6242818;23;20194;-83
2023/05/24 05:15:13;;;;;;;5.17;2.13;;;20.10;85.50;;;;;;6242064;23;20172;-84
2023/05/24 05:17:42;;;;;;;7.60;2.20;;;20.20;85.60;;;;;;6240060;23;20167;-83
2023/05/24 05:20:11;;;;;;;5.37;2.70;;;20.20;85.50;;;;;;6240086;23;20627;-84
2023/05/24 05:22:39;;;;;;;6.73;2.77;;;20.30;85.50;;;;;;6243780;23;20172;-83
2023/05/24 05:25:08;;;;;;;4.93;2.40;;;20.30;85.30;;;;;;6239829;23;20163;-84
2023/05/24 05:27:37;;;;;;;3.47;1.90;;;20.40;85.20;;;;;;6241392;23;20267;-83
2023/05/24 05:30:08;;;;;;;5.13;2.30;;;20.50;85.00;;;;;;6242155;23;20216;-86
2023/05/24 05:32:37;;;;;;;5.10;3.23;;;20.60;85.10;;;;;;6243429;23;20632;-89
2023/05/24 05:35:07;;;;;;;4.97;2.75;;;20.60;84.90;;;;;;6244753;23;20159;-90
2023/05/24 05:37:35;;;;;;;10.60;2.83;;;20.70;85.10;;;;;;6244202;23;20483;-88
2023/05/24 05:40:04;;;;;;;4.53;3.00;;;20.70;85.00;;;;;;6246164;23;20172;-88
2023/05/24 05:42:32;;;;;;;4.45;2.40;;;20.80;85.00;;;;;;6244374;23;20226;-89
2023/05/24 05:45:01;;;;;;;5.50;2.70;;;20.90;84.80;;;;;;6246391;23;20158;-88
2023/05/24 05:47:30;;;;;;;5.78;3.50;;;21.00;84.80;;;;;;6243870;23;20174;-89
2023/05/24 05:49:59;;;;;;;7.80;3.25;;;21.10;84.70;;;;;;6244512;23;20193;-89
2023/05/24 05:52:27;;;;;;;8.20;3.45;;;21.10;84.80;;;;;;6216897;23;20190;-89
2023/05/24 05:54:56;;;;;;;7.70;3.97;;;21.20;84.60;;;;;;6244159;23;20178;-89
2023/05/24 05:57:24;;;;;;;9.68;2.90;;;21.30;84.20;;;;;;6243670;23;20166;-90
2023/05/24 05:59:53;;;;;;;8.10;3.22;;;21.30;84.00;;;;;;6242841;23;20170;-89
2023/05/24 06:02:22;;;;;;;6.63;3.83;;;21.40;83.90;;;;;;6244341;23;20198;-89
2023/05/24 06:04:52;;;;;;;6.40;3.50;;;21.50;83.70;;;;;;6242237;23;20171;-90
2023/05/24 06:07:21;;;;;;;6.50;2.97;;;21.60;83.50;;;;;;6244155;23;20159;-90
2023/05/24 06:09:50;;;;;;;7.20;3.40;;;21.70;83.60;;;;;;6217578;23;20640;-87
2023/05/24 06:12:18;;;;;;;11.07;3.20;;;21.70;83.30;;;;;;6243653;23;20190;-88
2023/05/24 06:14:49;;;;;;;9.88;2.95;;;21.80;83.10;;;;;;6243397;23;20707;-88
2023/05/24 06:17:23;;;;;;;6.72;3.45;;;21.90;82.80;;;;;;6217062;23;20158;-88
2023/05/24 06:19:54;;;;;;;5.75;3.33;;;22.00;82.50;;;;;;6245477;23;20216;-88
2023/05/24 06:22:23;;;;;;;5.13;2.67;;;22.00;82.50;;;;;;6244295;23;20186;-87
2023/05/24 06:24:51;;;;;;;6.35;2.55;;;22.10;82.40;;;;;;6245427;23;20557;-90
2023/05/24 06:27:20;;;;;;;3.63;2.25;;;22.30;82.40;;;;;;6242892;23;20182;-89
2023/05/24 06:29:48;;;;;;;7.25;3.17;;;22.30;81.90;;;;;;6243502;23;20682;-88
2023/05/24 06:32:17;;;;;;;7.93;3.40;;;22.40;81.60;;;;;;6245219;23;20253;-89
2023/05/24 06:34:46;;;;;;;9.40;2.63;;;22.50;81.40;;;;;;6242686;23;20245;-88
2023/05/24 06:37:16;;;;;;;4.70;2.15;;;22.60;81.10;;;;;;6218966;23;20186;-89
2023/05/24 06:39:45;;;;;;;5.68;2.47;;;22.70;81.10;;;;;;6244374;23;20568;-89
2023/05/24 06:42:13;;;;;;;4.32;2.30;;;22.70;80.90;;;;;;6245147;23;20171;-89
2023/05/24 06:44:41;;;;;;;4.32;2.33;;;22.80;80.40;;;;;;6216516;23;20158;-89
2023/05/24 06:47:10;;;;;;;6.00;1.90;;;22.90;81.00;;;;;;6244415;23;20683;-90
2023/05/24 06:49:39;;;;;;;5.25;2.38;;;22.90;80.10;;;;;;6244077;23;20201;-89
2023/05/24 06:52:07;;;;;;;3.28;2.05;;;23.00;79.90;;;;;;6239730;23;20192;-87
2023/05/24 06:54:37;;;;;;;4.10;2.00;;;23.10;79.40;;;;;;6241605;23;20190;-87
2023/05/24 06:57:07;;;;;;;3.63;1.77;;;23.20;79.10;;;;;;6242369;23;20488;-88
2023/05/24 06:59:36;;;;;;;3.20;1.67;;;23.30;78.80;;;;;;6240993;23;20491;-87
2023/05/24 07:02:05;;;;;;;3.95;2.00;;;23.30;78.70;;;;;;6241113;23;20170;-87
2023/05/24 07:04:33;;;;;;;4.47;1.40;;;23.40;78.70;;;;;;6242890;23;20174;-88
2023/05/24 07:07:02;;;;;;;2.33;1.30;;;23.50;78.50;;;;;;6239371;23;20186;-86
2023/05/24 07:09:31;;;;;;;3.83;2.00;;;23.60;78.30;;;;;;6241459;23;20222;-87
2023/05/24 07:12:01;;;;;;;4.90;2.13;;;23.70;78.20;;;;;;6242300;23;20166;-87
2023/05/24 07:14:30;;;;;;;28.13;4.45;;;23.70;77.80;;;;;;6242865;23;20269;-87
2023/05/24 07:16:58;;;;;;;8.60;2.25;;;23.80;77.40;;;;;;6216542;23;20178;-88
2023/05/24 07:19:28;;;;;;;5.55;2.22;;;23.80;77.90;;;;;;6243404;23;20201;-88
2023/05/24 07:21:57;;;;;;;5.10;1.92;;;23.90;77.70;;;;;;6215845;23;20177;-86
2023/05/24 07:24:25;;;;;;;4.35;2.03;;;24.00;76.90;;;;;;6244216;23;20188;-89
2023/05/24 07:26:55;;;;;;;6.22;1.90;;;24.00;76.40;;;;;;6242049;23;20179;-89
2023/05/24 07:29:26;;;;;;;3.42;1.73;;;24.10;76.10;;;;;;6242917;23;20198;-87
2023/05/24 07:31:56;;;;;;;3.45;1.77;;;24.10;75.40;;;;;;6240581;23;20205;-87
2023/05/24 07:34:26;;;;;;;3.92;1.98;;;24.10;75.40;;;;;;6215213;23;20190;-87
2023/05/24 07:36:55;;;;;;;2.75;1.60;;;24.20;75.50;;;;;;6240441;23;20170;-86
2023/05/24 07:39:24;;;;;;;4.47;1.77;;;24.20;75.50;;;;;;6243576;23;20491;-86
2023/05/24 07:41:52;;;;;;;3.03;1.60;;;24.30;75.40;;;;;;6241260;23;20171;-86
2023/05/24 07:44:21;;;;;;;4.38;1.67;;;24.40;75.20;;;;;;6241038;23;20495;-87
2023/05/24 07:46:51;;;;;;;4.18;1.88;;;24.40;73.50;;;;;;6243351;23;20261;-88
2023/05/24 07:49:19;;;;;;;5.50;2.35;;;24.50;73.50;;;;;;6244928;23;20165;-88
2023/05/24 07:51:48;;;;;;;3.00;1.98;;;24.50;72.90;;;;;;6242326;23;20241;-86
2023/05/24 07:54:17;;;;;;;5.43;2.38;;;24.50;73.00;;;;;;6243198;23;20277;-87
2023/05/24 07:56:45;;;;;;;3.15;1.80;;;24.60;72.70;;;;;;6238882;23;20216;-86
2023/05/24 07:59:14;;;;;;;2.63;1.70;;;24.60;72.50;;;;;;6240039;23;20638;-86
2023/05/24 08:01:43;;;;;;;1.95;1.58;;;24.70;72.40;;;;;;6241995;23;20170;-85
2023/05/24 08:04:13;;;;;;;1.90;1.38;;;24.70;72.10;;;;;;6241675;23;20727;-87
2023/05/24 08:06:41;;;;;;;3.85;1.92;;;24.70;72.10;;;;;;6240089;23;20170;-86
2023/05/24 08:09:11;;;;;;;2.95;1.48;;;24.80;71.30;;;;;;6216096;23;20166;-89
2023/05/24 08:11:40;;;;;;;3.60;1.33;;;24.80;71.00;;;;;;6241214;23;20635;-89
2023/05/24 08:14:09;;;;;;;4.70;1.83;;;24.80;71.00;;;;;;6241824;23;20520;-86
2023/05/24 08:16:37;;;;;;;3.35;1.55;;;24.90;70.70;;;;;;6244111;23;20162;-88
2023/05/24 08:19:06;;;;;;;4.07;2.40;;;25.00;70.50;;;;;;6246056;23;20182;-89
2023/05/24 08:21:37;;;;;;;3.17;1.40;;;25.00;70.00;;;;;;6240587;23;20163;-90
2023/05/24 08:24:06;;;;;;;5.68;1.83;;;25.00;68.80;;;;;;6249535;23;20159;-89
2023/05/24 08:26:36;;;;;;;3.95;2.00;;;25.00;68.30;;;;;;6253016;23;20216;-89
2023/05/24 08:29:07;;;;;;;2.85;1.63;;;25.00;68.80;;;;;;6245143;23;20600;-83
2023/05/24 08:31:37;;;;;;;2.53;1.40;;;25.10;68.90;;;;;;6239926;23;20698;-83
2023/05/24 08:34:05;;;;;;;9.43;1.65;;;25.20;69.40;;;;;;6240239;23;20190;-82
2023/05/24 08:36:34;;;;;;;3.55;1.98;;;25.30;69.60;;;;;;6241669;23;20178;-82
2023/05/24 08:39:05;;;;;;;2.55;1.40;;;25.30;68.60;;;;;;6243530;23;20217;-83
2023/05/24 08:41:36;;;;;;;3.25;1.67;;;25.40;68.60;;;;;;6240935;23;20154;-82
2023/05/24 08:44:06;;;;;;;3.97;1.88;;;25.50;68.10;;;;;;6242139;23;20204;-83
2023/05/24 08:46:36;;;;;;;2.25;1.17;;;25.50;66.30;;;;;;6243121;23;20178;-84
2023/05/24 08:49:06;;;;;;;4.93;1.65;;;25.60;66.70;;;;;;6243407;23;20163;-83
2023/05/24 08:51:37;;;;;;;2.22;1.45;;;25.60;66.30;;;;;;6243466;23;20209;-83
2023/05/24 08:54:08;;;;;;;4.78;1.75;;;25.70;66.20;;;;;;6242549;23;20615;-84
2023/05/24 08:56:37;;;;;;;3.53;1.60;;;25.80;66.20;;;;;;6239663;23;20534;-83
2023/05/24 08:59:07;;;;;;;4.47;1.65;;;25.90;66.30;;;;;;6244523;23;20694;-83
2023/05/24 09:01:45;;;;;;;2.53;1.40;;;25.90;65.60;;;;;;6241770;23;20500;-89
2023/05/24 09:04:27;;;;;;;2.15;1.50;;;25.90;65.20;;;;;;6237452;23;20495;-84
2023/05/24 09:06:57;;;;;;;3.47;1.63;;;26.00;64.70;;;;;;6240331;23;20167;-84
2023/05/24 09:09:28;;;;;;;3.67;1.33;;;26.10;65.40;;;;;;6240814;23;20642;-84
2023/05/24 09:12:00;;;;;;;2.17;1.35;;;26.10;65.00;;;;;;6242499;23;20212;-84
2023/05/24 09:14:29;;;;;;;2.83;1.42;;;26.20;65.40;;;;;;6241427;23;20730;-83
2023/05/24 09:16:58;;;;;;;3.78;1.70;;;26.20;64.50;;;;;;6241606;23;20167;-85
2023/05/24 09:19:27;;;;;;;3.40;1.55;;;26.20;65.00;;;;;;6241858;23;20253;-84
2023/05/24 09:21:57;;;;;;;5.60;1.75;;;26.30;65.20;;;;;;6240836;23;20639;-82
2023/05/24 09:24:27;;;;;;;2.35;1.30;;;26.30;65.30;;;;;;6240475;23;20185;-83
2023/05/24 09:27:04;;;;;;;3.42;1.30;;;26.30;65.50;;;;;;6240400;23;20679;-81
2023/05/24 09:29:36;;;;;;;3.13;1.90;;;26.30;65.20;;;;;;6241136;23;20273;-83
2023/05/24 09:32:07;;;;;;;3.50;1.95;;;26.20;64.50;;;;;;6237821;23;20480;-83
2023/05/24 09:34:40;;;;;;;2.80;1.63;;;26.20;64.20;;;;;;6241510;23;20639;-83
2023/05/24 09:37:15;;;;;;;2.00;1.27;;;26.20;64.30;;;;;;6241761;23;20171;-84
2023/05/24 09:39:47;;;;;;;5.25;1.85;;;26.10;64.50;;;;;;6239045;23;20170;-83
2023/05/24 09:42:16;;;;;;;3.83;1.55;;;26.10;64.10;;;;;;6241214;23;20638;-82
2023/05/24 09:44:46;;;;;;;2.63;1.52;;;26.20;64.50;;;;;;6241821;23;20167;-84
2023/05/24 09:47:15;;;;;;;2.80;1.33;;;26.30;64.40;;;;;;6241810;23;20166;-83
2023/05/24 09:49:43;;;;;;;7.60;1.67;;;26.20;64.50;;;;;;6242829;23;20166;-84
2023/05/24 09:52:16;;;;;;;2.83;1.73;;;26.30;64.30;;;;;;6242549;23;20162;-84
2023/05/24 09:54:46;;;;;;;3.70;2.22;;;26.30;62.60;;;;;;6240326;23;20251;-82
2023/05/24 09:57:16;;;;;;;2.83;1.63;;;26.40;62.20;;;;;;6240585;23;20155;-82
2023/05/24 09:59:45;;;;;;;2.55;0.95;;;26.50;62.80;;;;;;6242967;23;20693;-83
2023/05/24 10:02:13;;;;;;;3.88;1.88;;;26.60;62.80;;;;;;6240300;23;20172;-83
2023/05/24 10:04:42;;;;;;;2.20;1.33;;;26.60;61.80;;;;;;6238769;23;20177;-84
2023/05/24 10:07:12;;;;;;;2.70;1.48;;;26.70;61.40;;;;;;6240038;23;20250;-84
2023/05/24 10:09:41;;;;;;;2.28;1.60;;;26.80;60.60;;;;;;6242491;23;20170;-84
2023/05/24 10:12:11;;;;;;;2.47;1.35;;;26.90;60.00;;;;;;6240448;23;20253;-82
2023/05/24 10:14:39;;;;;;;2.33;1.42;;;27.00;60.00;;;;;;6239843;23;20539;-82
2023/05/24 10:17:08;;;;;;;1.45;1.05;;;27.10;60.00;;;;;;6237698;23;20220;-82
2023/05/24 10:19:38;;;;;;;3.05;1.35;;;27.10;59.30;;;;;;6241815;23;20246;-83
2023/05/24 10:22:07;;;;;;;2.03;1.20;;;27.20;59.70;;;;;;6240173;23;20229;-82
2023/05/24 10:24:40;;;;;;;1.65;1.10;;;27.20;59.30;;;;;;6242275;23;20261;-82
2023/05/24 10:27:14;;;;;;;2.15;1.17;;;27.30;59.20;;;;;;6239738;23;20169;-83
2023/05/24 10:29:50;;;;;;;2.53;1.20;;;27.40;59.50;;;;;;6240952;23;20162;-82
2023/05/24 10:32:21;;;;;;;2.38;1.35;;;27.50;58.90;;;;;;6242790;23;20634;-84
2023/05/24 10:34:52;;;;;;;3.47;1.08;;;27.50;58.60;;;;;;6243320;23;21126;-83
2023/05/24 10:37:21;;;;;;;3.83;1.10;;;27.60;58.10;;;;;;6237127;23;20170;-80
2023/05/24 10:39:51;;;;;;;2.35;1.55;;;27.70;57.70;;;;;;6241818;23;20185;-83
2023/05/24 10:42:20;;;;;;;3.65;1.30;;;27.70;56.70;;;;;;6243698;23;20177;-82
2023/05/24 10:44:49;;;;;;;2.00;1.17;;;27.80;56.70;;;;;;6238037;23;20177;-84
2023/05/24 10:47:20;;;;;;;3.17;1.02;;;27.80;56.00;;;;;;6238587;23;20155;-83
2023/05/24 10:49:51;;;;;;;3.10;1.48;;;27.90;56.50;;;;;;6236424;23;20224;-84
2023/05/24 10:52:20;;;;;;;3.88;1.10;;;28.00;56.90;;;;;;6241345;23;20155;-84
2023/05/24 10:55:08;;;;;;;2.47;1.25;;;28.00;56.80;;;;;;6240395;23;20193;-82
2023/05/24 10:57:39;;;;;;;2.65;1.23;;;28.00;55.30;;;;;;6240795;23;20191;-84
2023/05/24 11:00:27;;;;;;;2.28;1.00;;;28.00;55.80;;;;;;6240275;23;20190;-84
2023/05/24 11:03:03;;;;;;;3.00;1.00;;;28.00;55.70;;;;;;6242618;23;20233;-84
2023/05/24 11:05:48;;;;;;;3.38;1.60;;;27.90;55.50;;;;;;6238841;23;20454;-83
2023/05/24 11:08:23;;;;;;;2.13;1.08;;;27.90;55.70;;;;;;6241363;23;20162;-83
2023/05/24 11:11:02;;;;;;;2.72;1.30;;;27.90;55.90;;;;;;6240530;23;20547;-82
2023/05/24 11:13:56;;;;;;;2.03;0.93;;;27.90;56.10;;;;;;6239490;23;20163;-84
2023/05/24 11:16:38;;;;;;;2.15;0.90;;;27.80;55.90;;;;;;6237908;23;20581;-84
2023/05/24 11:19:17;;;;;;;1.70;1.17;;;27.80;56.30;;;;;;6240588;23;20166;-85
2023/05/24 11:21:47;;;;;;;3.92;1.58;;;28.00;56.60;;;;;;6236868;23;20915;-84
2023/05/24 11:24:17;;;;;;;2.38;1.40;;;28.00;56.60;;;;;;6240094;23;20615;-84
2023/05/24 11:26:46;;;;;;;5.90;1.33;;;28.10;56.70;;;;;;6239904;23;20238;-85
2023/05/24 11:29:19;;;;;;;1.92;1.35;;;28.10;56.00;;;;;;6241063;23;20176;-84
2023/05/24 11:31:49;;;;;;;1.95;1.30;;;28.20;55.50;;;;;;6240199;23;20159;-85
2023/05/24 11:34:18;;;;;;;2.10;1.13;;;28.40;55.60;;;;;;6240027;23;20715;-85
2023/05/24 11:36:47;;;;;;;3.58;1.60;;;28.40;55.30;;;;;;6241025;23;20194;-83
2023/05/24 11:39:16;;;;;;;1.80;1.10;;;28.40;54.90;;;;;;6241892;23;20166;-85
2023/05/24 11:41:45;;;;;;;2.80;1.30;;;28.50;55.00;;;;;;6240410;23;20760;-85
2023/05/24 11:44:19;;;;;;;1.52;0.93;;;28.40;54.80;;;;;;6241632;23;20535;-85
2023/05/24 11:46:47;;;;;;;2.67;1.08;;;28.50;54.70;;;;;;6240970;23;20499;-86
2023/05/24 11:49:17;;;;;;;2.85;0.90;;;28.60;55.10;;;;;;6239993;23;20170;-85
2023/05/24 11:51:46;;;;;;;3.60;1.52;;;28.70;55.00;;;;;;6241054;23;20174;-85
2023/05/24 11:54:15;;;;;;;1.88;0.85;;;28.80;54.60;;;;;;6238721;23;20170;-85
2023/05/24 11:56:43;;;;;;;1.20;0.93;;;28.90;54.70;;;;;;6240117;23;20570;-84
2023/05/24 11:59:16;;;;;;;1.95;1.10;;;29.10;54.40;;;;;;6239152;23;20170;-84
2023/05/24 12:01:46;;;;;;;1.65;1.15;;;29.20;54.30;;;;;;6240291;23;20159;-80
2023/05/24 12:04:14;;;;;;;3.00;1.20;;;29.20;54.00;;;;;;6240096;23;20181;-85
2023/05/24 12:06:43;;;;;;;2.45;1.58;;;29.20;53.70;;;;;;6240869;23;20799;-84
2023/05/24 12:09:13;;;;;;;2.00;1.27;;;29.20;53.60;;;;;;6239149;23;20178;-82
2023/05/24 12:11:43;;;;;;;1.73;1.10;;;29.20;53.50;;;;;;6240711;23;20241;-88
2023/05/24 12:14:16;;;;;;;1.77;0.90;;;29.20;53.40;;;;;;6239144;23;20162;-87
2023/05/24 12:16:47;;;;;;;1.27;0.82;;;29.20;52.80;;;;;;6240813;23;20186;-86
2023/05/24 12:19:18;;;;;;;2.25;1.25;;;29.20;51.70;;;;;;6240338;23;20158;-85
2023/05/24 12:22:00;;;;;;;2.08;1.23;;;29.20;52.00;;;;;;6242158;23;20466;-85
2023/05/24 12:24:29;;;;;;;2.08;1.08;;;29.20;52.50;;;;;;6237142;23;20188;-82
2023/05/24 12:27:05;;;;;;;1.50;0.98;;;29.30;52.30;;;;;;6240860;23;20528;-83
2023/05/24 12:29:36;;;;;;;2.25;0.90;;;29.40;52.70;;;;;;6240378;23;20236;-86
2023/05/24 12:32:11;;;;;;;1.77;0.80;;;29.40;52.40;;;;;;6241489;23;20639;-83
2023/05/24 12:34:41;;;;;;;1.70;0.90;;;29.60;52.80;;;;;;6244250;23;20188;-85
2023/05/24 12:37:12;;;;;;;1.77;1.20;;;29.70;52.80;;;;;;6243069;23;20210;-83
2023/05/24 12:39:41;;;;;;;0.90;0.75;;;29.90;52.60;;;;;;6241301;23;20193;-85
2023/05/24 12:42:12;;;;;;;1.42;0.75;;;30.00;52.40;;;;;;6243870;23;20159;-86
2023/05/24 12:44:41;;;;;;;1.88;1.00;;;30.10;52.10;;;;;;6244493;23;20161;-83
2023/05/24 12:47:11;;;;;;;2.33;1.17;;;30.20;51.50;;;;;;6243057;23;20901;-83
2023/05/24 12:49:40;;;;;;;2.75;1.20;;;30.30;51.50;;;;;;6243609;23;20155;-85
2023/05/24 12:52:08;;;;;;;2.67;1.23;;;30.40;51.30;;;;;;6238258;23;20257;-84
2023/05/24 12:54:37;;;;;;;3.67;1.27;;;30.40;50.90;;;;;;6238766;23;20174;-86
2023/05/24 12:57:05;;;;;;;1.02;0.82;;;30.40;50.00;;;;;;6241966;23;20538;-84
2023/05/24 12:59:34;;;;;;;1.33;1.13;;;30.40;50.20;;;;;;6243168;23;20269;-85
2023/05/24 13:02:02;;;;;;;8.18;1.50;;;30.40;49.60;;;;;;6241659;23;20173;-85
2023/05/24 13:04:34;;;;;;;2.58;0.80;;;30.30;49.80;;;;;;6240995;23;20170;-84
2023/05/24 13:07:03;;;;;;;1.15;0.88;;;30.40;49.90;;;;;;6241747;23;20163;-83
2023/05/24 13:09:32;;;;;;;1.70;0.73;;;30.50;50.00;;;;;;6242054;23;20616;-84
2023/05/24 13:12:01;;;;;;;1.90;0.80;;;30.50;49.70;;;;;;6242792;23;20551;-84
2023/05/24 13:14:30;;;;;;;3.15;1.23;;;30.50;49.30;;;;;;6243651;23;20206;-87
2023/05/24 13:16:58;;;;;;;3.20;1.00;;;30.40;49.20;;;;;;6242328;23;20287;-84
2023/05/24 13:19:27;;;;;;;1.85;1.42;;;30.40;48.90;;;;;;6237458;23;20182;-84
2023/05/24 13:21:57;;;;;;;0.73;0.57;;;30.30;49.10;;;;;;6241170;23;20257;-84